Time;durP1;ratioP1;P1;durP2;ratioP2;P2;SDS_P1;SDS_P2;PMS_P1;PMS_P2;Temp;Humidity;BMP_temperature;BMP_pressure;BME280_temperature;BME280_humidity;BME280_pressure;Samples;Min_cycle;Max_cycle;Signal;HPM_P1;HPM_P2
2023/05/04 00:00:31;;;;;;;7.47;2.05;;;;;;;;;;5027144;28;20037;-64
2023/05/04 00:02:57;;;;;;;5.18;1.50;;;;;;;;;;5005089;28;20378;-64
2023/05/04 00:05:23;;;;;;;5.10;1.55;;;;;;;;;;5012357;28;20493;-64
2023/05/04 00:07:49;;;;;;;6.65;2.00;;;;;;;;;;5006877;28;20113;-64
2023/05/04 00:10:16;;;;;;;6.25;1.80;;;;;;;;;;5009372;28;20052;-64
2023/05/04 00:12:42;;;;;;;7.63;1.65;;;;;;;;;;5027593;28;20136;-63
2023/05/04 00:15:08;;;;;;;4.82;1.48;;;;;;;;;;5028364;28;20041;-64
2023/05/04 00:17:34;;;;;;;6.03;1.77;;;;;;;;;;5014026;28;20510;-63
2023/05/04 00:20:00;;;;;;;6.60;1.45;;;;;;;;;;5016391;28;20786;-66
2023/05/04 00:22:27;;;;;;;5.63;1.60;;;;;;;;;;5032032;28;20033;-64
2023/05/04 00:24:53;;;;;;;7.20;1.30;;;;;;;;;;5024063;28;20033;-64
2023/05/04 00:27:19;;;;;;;6.97;1.42;;;;;;;;;;5032629;28;20047;-64
2023/05/04 00:29:45;;;;;;;5.13;1.35;;;;;;;;;;5034375;28;20044;-64
2023/05/04 00:32:11;;;;;;;4.75;1.48;;;;;;;;;;5033280;28;20037;-64
2023/05/04 00:34:37;;;;;;;;;;;;;;;;;;5011492;28;20519;-65
2023/05/04 00:37:03;;;;;;;6.68;1.33;;;;;;;;;;5033261;28;20365;-64
2023/05/04 00:39:29;;;;;;;5.60;1.40;;;;;;;;;;5025091;28;20522;-64
2023/05/04 00:41:55;;;;;;;5.85;1.42;;;;;;;;;;5011013;28;20028;-64
2023/05/04 00:44:25;;;;;;;;;;;;;;;;;;5014311;28;20029;-64
2023/05/04 00:46:51;;;;;;;4.57;1.35;;;;;;;;;;5031428;28;19940;-64
2023/05/04 00:49:18;;;;;;;4.47;1.17;;;;;;;;;;5030682;28;20041;-64
2023/05/04 00:51:46;;;;;;;5.80;1.48;;;;;;;;;;5028560;28;20051;-66
2023/05/04 00:54:13;;;;;;;4.68;1.30;;;;;;;;;;5026983;28;20036;-63
2023/05/04 00:56:42;;;;;;;5.22;1.42;;;;;;;;;;5024348;28;20848;-63
2023/05/04 00:59:08;;;;;;;3.92;1.00;;;;;;;;;;5030561;28;20032;-63
2023/05/04 01:01:34;;;;;;;5.65;1.50;;;;;;;;;;5027867;28;20468;-64
2023/05/04 01:04:00;;;;;;;4.30;1.30;;;;;;;;;;5037392;28;20486;-64
2023/05/04 01:06:27;;;;;;;5.75;1.27;;;;;;;;;;5033997;28;20067;-64
2023/05/04 01:08:59;;;;;;;4.00;1.23;;;;;;;;;;5023837;28;20056;-64
2023/05/04 01:11:30;;;;;;;5.57;1.63;;;;;;;;;;5029958;28;20105;-65
2023/05/04 01:13:57;;;;;;;4.55;1.50;;;;;;;;;;5026551;28;20033;-64
2023/05/04 01:16:23;;;;;;;4.60;1.60;;;;;;;;;;5030932;28;20036;-64
2023/05/04 01:18:49;;;;;;;4.40;1.40;;;;;;;;;;5027863;28;20049;-66
2023/05/04 01:21:15;;;;;;;4.63;1.38;;;;;;;;;;5017721;28;20036;-64
2023/05/04 01:23:41;;;;;;;3.97;1.10;;;;;;;;;;5028723;28;20029;-65
2023/05/04 01:26:18;;;;;;;5.53;1.33;;;;;;;;;;5013969;28;20586;-66
2023/05/04 01:29:07;;;;;;;4.35;1.20;;;;;;;;;;5029253;28;20033;-65
2023/05/04 01:31:34;;;;;;;4.47;1.20;;;;;;;;;;5029117;28;20044;-64
2023/05/04 01:34:01;;;;;;;4.47;1.30;;;;;;;;;;5030414;28;20071;-65
2023/05/04 01:36:27;;;;;;;4.35;1.08;;;;;;;;;;5016379;28;20059;-65
2023/05/04 01:38:54;;;;;;;5.15;1.50;;;;;;;;;;5028193;28;20024;-63
2023/05/04 01:41:20;;;;;;;6.38;1.60;;;;;;;;;;5027769;28;20122;-63
2023/05/04 01:43:46;;;;;;;5.45;1.50;;;;;;;;;;5009774;28;20471;-64
2023/05/04 01:46:13;;;;;;;7.00;1.50;;;;;;;;;;5027215;28;20486;-64
2023/05/04 01:48:39;;;;;;;6.93;1.27;;;;;;;;;;5027132;28;20419;-65
2023/05/04 01:51:05;;;;;;;5.43;1.27;;;;;;;;;;5012392;28;20029;-64
2023/05/04 01:53:31;;;;;;;3.67;1.17;;;;;;;;;;5015372;28;20898;-65
2023/05/04 01:55:57;;;;;;;;;;;;;;;;;;5014496;28;20026;-64
2023/05/04 01:58:23;;;;;;;3.72;1.10;;;;;;;;;;5033520;28;19935;-64
2023/05/04 02:00:50;;;;;;;5.45;1.27;;;;;;;;;;5026891;28;20087;-64
2023/05/04 02:03:16;;;;;;;4.57;1.15;;;;;;;;;;5010046;28;20444;-64
2023/05/04 02:05:42;;;;;;;;;;;;;;;;;;5010174;28;20029;-64
2023/05/04 02:08:08;;;;;;;6.30;1.27;;;;;;;;;;5029614;28;19912;-63
2023/05/04 02:10:34;;;;;;;3.90;1.15;;;;;;;;;;5022374;28;20028;-63
2023/05/04 02:13:01;;;;;;;3.33;1.00;;;;;;;;;;5031147;28;20041;-64
2023/05/04 02:15:27;;;;;;;3.08;1.00;;;;;;;;;;5026913;28;20458;-64
2023/05/04 02:17:53;;;;;;;3.38;0.93;;;;;;;;;;5007396;28;20578;-63
2023/05/04 02:20:19;;;;;;;4.07;1.17;;;;;;;;;;5010028;28;20057;-64
2023/05/04 02:22:46;;;;;;;5.60;1.20;;;;;;;;;;5006073;28;20178;-64
2023/05/04 02:25:12;;;;;;;4.03;0.98;;;;;;;;;;5011209;28;20036;-63
2023/05/04 02:27:38;;;;;;;;;;;;;;;;;;5009501;28;20167;-68
2023/05/04 02:30:04;;;;;;;4.45;1.10;;;;;;;;;;5005287;28;20545;-65
2023/05/04 02:32:30;;;;;;;3.70;0.93;;;;;;;;;;5003262;28;20357;-65
2023/05/04 02:34:56;;;;;;;4.05;1.15;;;;;;;;;;5002494;28;20463;-65
2023/05/04 02:37:23;;;;;;;3.95;1.00;;;;;;;;;;5021786;28;20034;-66
2023/05/04 02:39:49;;;;;;;;;;;;;;;;;;5003445;28;20034;-65
2023/05/04 02:42:15;;;;;;;2.95;0.90;;;;;;;;;;5006417;28;19916;-64
2023/05/04 02:44:41;;;;;;;4.57;0.80;;;;;;;;;;5004748;28;20107;-64
2023/05/04 02:47:07;;;;;;;4.43;0.85;;;;;;;;;;5006286;28;20025;-64
2023/05/04 02:49:33;;;;;;;5.25;1.08;;;;;;;;;;5004356;28;20670;-64
2023/05/04 02:51:59;;;;;;;3.45;1.00;;;;;;;;;;5006285;28;20044;-64
2023/05/04 02:54:25;;;;;;;;;;;;;;;;;;5009783;28;20380;-64
2023/05/04 02:56:52;;;;;;;2.92;0.93;;;;;;;;;;5000475;28;20044;-64
2023/05/04 02:59:17;;;;;;;;;;;;;;;;;;5004486;28;20038;-64
2023/05/04 03:01:44;;;;;;;4.32;1.30;;;;;;;;;;5004710;28;19912;-64
2023/05/04 03:04:10;;;;;;;7.50;1.20;;;;;;;;;;5008861;28;20480;-64
2023/05/04 03:06:36;;;;;;;;;;;;;;;;;;5007231;28;20230;-64
2023/05/04 03:09:03;;;;;;;8.50;2.13;;;;;;;;;;5005650;28;19912;-64
2023/05/04 03:11:29;;;;;;;6.15;1.83;;;;;;;;;;5009091;28;20079;-64
2023/05/04 03:13:55;;;;;;;4.80;1.60;;;;;;;;;;5003077;28;20617;-65
2023/05/04 03:16:21;;;;;;;;;;;;;;;;;;5008037;28;20037;-64
2023/05/04 03:18:47;;;;;;;4.15;1.27;;;;;;;;;;5006779;28;19947;-65
2023/05/04 03:21:13;;;;;;;;;;;;;;;;;;5007691;28;20041;-63
2023/05/04 03:23:39;;;;;;;6.60;1.30;;;;;;;;;;5006011;28;19920;-63
2023/05/04 03:26:06;;;;;;;4.15;1.15;;;;;;;;;;5005173;28;20132;-64
2023/05/04 03:28:32;;;;;;;;;;;;;;;;;;5004991;28;20548;-64
2023/05/04 03:30:58;;;;;;;4.28;1.10;;;;;;;;;;5006369;28;19912;-64
2023/05/04 03:33:24;;;;;;;4.03;1.10;;;;;;;;;;5008759;28;20358;-63
2023/05/04 03:35:50;;;;;;;;;;;;;;;;;;5009615;28;20021;-63
2023/05/04 03:38:16;;;;;;;6.68;1.27;;;;;;;;;;5010967;28;20392;-64
2023/05/04 03:40:42;;;;;;;;;;;;;;;;;;5006813;28;20037;-63
2023/05/04 03:43:08;;;;;;;3.78;1.20;;;;;;;;;;5012442;28;20267;-63
2023/05/04 03:45:35;;;;;;;3.20;0.90;;;;;;;;;;5005470;28;20120;-63
2023/05/04 03:48:01;;;;;;;3.83;1.25;;;;;;;;;;5008911;28;20034;-64
2023/05/04 03:50:27;;;;;;;3.58;1.10;;;;;;;;;;5010673;28;20048;-63
2023/05/04 03:52:53;;;;;;;;;;;;;;;;;;5013235;28;20284;-63
2023/05/04 03:55:19;;;;;;;3.40;1.20;;;;;;;;;;5012115;28;19921;-63
2023/05/04 03:57:46;;;;;;;3.83;1.10;;;;;;;;;;5009224;28;20419;-63
2023/05/04 04:00:12;;;;;;;;;;;;;;;;;;5015011;28;20513;-64
2023/05/04 04:02:38;;;;;;;6.80;1.33;;;;;;;;;;5018519;28;20476;-64
2023/05/04 04:05:04;;;;;;;;;;;;;;;;;;5013613;28;20087;-64
2023/05/04 04:07:31;;;;;;;6.97;1.98;;;;;;;;;;5009278;28;20012;-64
2023/05/04 04:09:58;;;;;;;5.20;1.50;;;;;;;;;;5013133;28;20424;-64
2023/05/04 04:12:24;;;;;;;;;;;;;;;;;;5013552;28;20034;-63
2023/05/04 04:14:53;;;;;;;5.70;1.90;;;;;;;;;;5012366;28;20359;-66
2023/05/04 04:17:19;;;;;;;6.70;1.67;;;;;;;;;;5010766;28;20041;-63
2023/05/04 04:19:46;;;;;;;5.93;1.80;;;;;;;;;;5019249;28;20076;-63
2023/05/04 04:22:12;;;;;;;;;;;;;;;;;;5011142;28;20294;-64
2023/05/04 04:24:38;;;;;;;4.72;1.58;;;;;;;;;;5013671;28;20763;-63
2023/05/04 04:27:04;;;;;;;;;;;;;;;;;;5029651;28;20121;-63
2023/05/04 04:29:30;;;;;;;6.47;1.60;;;;;;;;;;5034488;28;20453;-64
2023/05/04 04:31:56;;;;;;;;;;;;;;;;;;5032085;28;20040;-64
2023/05/04 04:34:22;;;;;;;4.68;1.40;;;;;;;;;;5031907;28;19913;-63
2023/05/04 04:36:50;;;;;;;4.72;1.35;;;;;;;;;;5027230;28;20033;-64
2023/05/04 04:39:16;;;;;;;4.50;1.50;;;;;;;;;;5026879;28;20432;-64
2023/05/04 04:41:42;;;;;;;;;;;;;;;;;;5027530;28;20533;-64
2023/05/04 04:44:08;;;;;;;17.15;2.33;;;;;;;;;;5034181;28;19919;-64
2023/05/04 04:46:34;;;;;;;;;;;;;;;;;;5033521;28;20032;-64
2023/05/04 04:49:00;;;;;;;10.13;1.88;;;;;;;;;;5031782;28;20816;-64
2023/05/04 04:51:26;;;;;;;3.53;1.10;;;;;;;;;;5031121;28;20037;-64
2023/05/04 04:53:52;;;;;;;;;;;;;;;;;;5011482;28;20268;-64
2023/05/04 04:56:18;;;;;;;6.10;1.45;;;;;;;;;;5013830;28;19966;-66
2023/05/04 04:58:46;;;;;;;8.68;2.17;;;;;;;;;;5027055;28;20303;-64
2023/05/04 05:01:16;;;;;;;8.60;1.67;;;;;;;;;;5022087;28;20029;-64
2023/05/04 05:03:43;;;;;;;9.32;1.70;;;;;;;;;;5027130;28;20118;-64
2023/05/04 05:06:10;;;;;;;5.53;1.20;;;;;;;;;;5031672;28;20035;-64
2023/05/04 05:08:36;;;;;;;6.63;1.42;;;;;;;;;;5018252;28;20036;-64
2023/05/04 05:11:02;;;;;;;4.80;1.20;;;;;;;;;;5014829;28;20037;-64
2023/05/04 05:13:30;;;;;;;8.15;1.52;;;;;;;;;;5018395;28;20037;-65
2023/05/04 05:15:56;;;;;;;9.25;1.65;;;;;;;;;;5015634;28;20037;-64
2023/05/04 05:18:23;;;;;;;;;;;;;;;;;;5033337;28;20059;-64
2023/05/04 05:20:49;;;;;;;5.95;1.60;;;;;;;;;;5029458;28;19924;-65
2023/05/04 05:23:15;;;;;;;5.90;1.50;;;;;;;;;;5032513;28;20478;-64
2023/05/04 05:25:42;;;;;;;;;;;;;;;;;;5032413;28;20017;-64
2023/05/04 05:28:08;;;;;;;4.75;1.30;;;;;;;;;;5029093;28;19968;-65
2023/05/04 05:30:34;;;;;;;4.60;1.20;;;;;;;;;;5030737;28;20160;-65
2023/05/04 05:33:02;;;;;;;;;;;;;;;;;;5031876;28;20450;-63
2023/05/04 05:35:28;;;;;;;4.55;1.33;;;;;;;;;;5024097;28;20313;-65
2023/05/04 05:37:54;;;;;;;;;;;;;;;;;;5032799;28;20043;-65
2023/05/04 05:40:21;;;;;;;5.05;1.70;;;;;;;;;;5011011;28;20176;-64
2023/05/04 05:42:47;;;;;;;5.53;1.70;;;;;;;;;;5032365;28;20120;-63
2023/05/04 05:45:13;;;;;;;11.57;4.43;;;;;;;;;;5011447;28;20506;-64
2023/05/04 05:47:39;;;;;;;;;;;;;;;;;;5020597;28;20146;-65
2023/05/04 05:50:06;;;;;;;8.68;3.55;;;;;;;;;;5009372;28;20296;-66
2023/05/04 05:52:32;;;;;;;5.65;1.88;;;;;;;;;;5009377;28;20128;-65
2023/05/04 05:54:58;;;;;;;;;;;;;;;;;;5025374;28;20446;-65
2023/05/04 05:57:24;;;;;;;9.07;4.32;;;;;;;;;;5025517;28;20306;-65
2023/05/04 05:59:50;;;;;;;7.60;2.60;;;;;;;;;;5009975;28;20036;-64
2023/05/04 06:02:16;;;;;;;;;;;;;;;;;;5008941;28;20348;-64
2023/05/04 06:04:46;;;;;;;9.43;1.75;;;;;;;;;;5010159;28;20054;-64
2023/05/04 06:07:12;;;;;;;10.75;4.82;;;;;;;;;;5030251;28;20054;-65
2023/05/04 06:09:38;;;;;;;8.15;2.60;;;;;;;;;;5024297;28;20463;-67
2023/05/04 06:12:11;;;;;;;8.65;3.17;;;;;;;;;;5025428;28;20087;-65
2023/05/04 06:14:37;;;;;;;10.10;1.80;;;;;;;;;;5021274;28;20037;-65
2023/05/04 06:17:03;;;;;;;10.55;2.15;;;;;;;;;;5009966;28;20039;-66
2023/05/04 06:19:29;;;;;;;9.35;1.92;;;;;;;;;;5006160;28;20056;-64
2023/05/04 06:21:56;;;;;;;6.70;1.77;;;;;;;;;;5008468;28;20113;-64
2023/05/04 06:24:23;;;;;;;5.95;1.77;;;;;;;;;;5025820;28;20028;-65
2023/05/04 06:26:50;;;;;;;7.03;2.63;;;;;;;;;;5026382;28;20024;-65
2023/05/04 06:29:16;;;;;;;7.75;2.60;;;;;;;;;;5006362;28;20051;-65
2023/05/04 06:31:42;;;;;;;8.65;3.58;;;;;;;;;;5020278;28;20433;-64
2023/05/04 06:34:08;;;;;;;6.90;2.65;;;;;;;;;;5019920;28;20025;-64
2023/05/04 06:36:35;;;;;;;7.85;3.00;;;;;;;;;;5005248;28;20036;-63
2023/05/04 06:39:01;;;;;;;10.48;5.32;;;;;;;;;;5018691;28;20044;-67
2023/05/04 06:41:27;;;;;;;8.30;3.72;;;;;;;;;;5023888;28;20037;-64
2023/05/04 06:43:53;;;;;;;8.85;3.80;;;;;;;;;;5021142;28;20060;-65
2023/05/04 06:46:20;;;;;;;8.00;2.47;;;;;;;;;;5023016;28;20309;-64
2023/05/04 06:48:46;;;;;;;7.53;2.65;;;;;;;;;;5024873;28;20044;-64
2023/05/04 06:51:12;;;;;;;5.65;1.70;;;;;;;;;;5023097;28;20459;-65
2023/05/04 06:53:38;;;;;;;9.02;1.70;;;;;;;;;;5017555;28;20036;-65
2023/05/04 06:56:06;;;;;;;7.38;1.90;;;;;;;;;;5008601;28;20575;-64
2023/05/04 06:58:32;;;;;;;5.90;1.73;;;;;;;;;;5025304;28;20461;-66
2023/05/04 07:00:58;;;;;;;8.40;1.60;;;;;;;;;;5006407;28;20035;-65
2023/05/04 07:03:24;;;;;;;8.60;1.70;;;;;;;;;;5031635;28;20348;-67
2023/05/04 07:05:51;;;;;;;6.50;1.83;;;;;;;;;;5024030;28;21055;-65
2023/05/04 07:08:18;;;;;;;7.32;2.10;;;;;;;;;;5005483;28;20121;-66
2023/05/04 07:10:44;;;;;;;5.63;1.55;;;;;;;;;;5004859;28;20064;-64
2023/05/04 07:13:11;;;;;;;10.23;1.90;;;;;;;;;;5006980;28;20683;-64
2023/05/04 07:15:37;;;;;;;8.50;2.00;;;;;;;;;;5020858;28;20033;-64
2023/05/04 07:18:03;;;;;;;4.93;1.42;;;;;;;;;;5022097;28;20030;-65
2023/05/04 07:20:29;;;;;;;7.35;1.58;;;;;;;;;;5021785;28;20055;-64
2023/05/04 07:22:56;;;;;;;5.53;1.40;;;;;;;;;;5022150;28;20025;-65
2023/05/04 07:25:23;;;;;;;3.47;0.90;;;;;;;;;;5021012;28;20021;-64
2023/05/04 07:27:49;;;;;;;7.50;1.13;;;;;;;;;;5022901;28;20099;-64
2023/05/04 07:30:15;;;;;;;7.43;1.50;;;;;;;;;;5024559;28;20740;-64
2023/05/04 07:32:41;;;;;;;7.07;1.27;;;;;;;;;;5019531;28;20039;-65
2023/05/04 07:35:08;;;;;;;4.57;1.08;;;;;;;;;;5021249;28;20410;-64
2023/05/04 07:37:34;;;;;;;8.98;1.40;;;;;;;;;;5018133;28;20427;-64
2023/05/04 07:40:00;;;;;;;3.92;0.93;;;;;;;;;;5006922;28;20029;-64
2023/05/04 07:42:26;;;;;;;4.72;1.20;;;;;;;;;;5018004;28;20145;-64
2023/05/04 07:44:53;;;;;;;3.83;1.10;;;;;;;;;;5022553;28;20330;-64
2023/05/04 07:47:19;;;;;;;6.75;1.48;;;;;;;;;;5020742;28;20061;-65
2023/05/04 07:49:45;;;;;;;5.00;1.20;;;;;;;;;;5003048;28;20037;-64
2023/05/04 07:52:11;;;;;;;3.83;1.08;;;;;;;;;;5020271;28;20036;-64
2023/05/04 07:54:38;;;;;;;3.67;1.13;;;;;;;;;;5017742;28;20056;-66
2023/05/04 07:57:06;;;;;;;5.75;1.30;;;;;;;;;;5025156;28;20041;-66
2023/05/04 07:59:32;;;;;;;4.80;1.10;;;;;;;;;;5022226;28;20033;-64
2023/05/04 08:01:59;;;;;;;4.88;1.30;;;;;;;;;;5007133;28;20479;-65
2023/05/04 08:04:25;;;;;;;5.60;1.60;;;;;;;;;;5022318;28;20491;-65
2023/05/04 08:06:51;;;;;;;5.05;1.50;;;;;;;;;;5021376;28;20036;-64
2023/05/04 08:09:18;;;;;;;4.00;1.30;;;;;;;;;;5018028;28;20028;-65
2023/05/04 08:11:47;;;;;;;4.13;1.20;;;;;;;;;;5017784;28;20649;-64
2023/05/04 08:14:13;;;;;;;4.25;1.20;;;;;;;;;;5006329;28;20114;-64
2023/05/04 08:16:40;;;;;;;6.45;1.48;;;;;;;;;;5001673;28;20041;-65
2023/05/04 08:19:06;;;;;;;3.97;1.30;;;;;;;;;;5022010;28;20486;-65
2023/05/04 08:21:32;;;;;;;6.22;1.60;;;;;;;;;;5007607;28;20038;-65
2023/05/04 08:23:58;;;;;;;6.32;1.40;;;;;;;;;;5005166;28;20033;-65
2023/05/04 08:26:25;;;;;;;6.28;1.42;;;;;;;;;;5023095;28;20446;-65
2023/05/04 08:28:51;;;;;;;4.07;1.25;;;;;;;;;;5003129;28;20032;-65
2023/05/04 08:31:17;;;;;;;4.00;1.25;;;;;;;;;;5020594;28;20047;-65
2023/05/04 08:33:45;;;;;;;7.32;1.55;;;;;;;;;;5022834;28;20025;-65
2023/05/04 08:36:11;;;;;;;3.95;1.00;;;;;;;;;;5028566;28;20043;-65
2023/05/04 08:38:37;;;;;;;4.25;1.33;;;;;;;;;;5022097;28;20029;-65
2023/05/04 08:41:04;;;;;;;3.92;0.95;;;;;;;;;;5013202;28;20063;-64
2023/05/04 08:43:30;;;;;;;3.90;1.10;;;;;;;;;;5009542;28;20448;-65
2023/05/04 08:45:57;;;;;;;6.18;1.20;;;;;;;;;;5010111;28;20040;-63
2023/05/04 08:48:23;;;;;;;11.48;1.50;;;;;;;;;;5024311;28;20589;-64
2023/05/04 08:50:49;;;;;;;8.35;1.20;;;;;;;;;;5019920;28;20071;-64
2023/05/04 08:53:18;;;;;;;3.63;1.20;;;;;;;;;;5024984;28;20124;-66
2023/05/04 08:55:46;;;;;;;3.45;0.98;;;;;;;;;;5024575;28;20771;-64
2023/05/04 08:58:13;;;;;;;5.22;1.30;;;;;;;;;;5022870;28;20114;-64
2023/05/04 09:00:40;;;;;;;4.05;0.90;;;;;;;;;;5019882;28;20032;-64
2023/05/04 09:03:09;;;;;;;5.28;1.05;;;;;;;;;;5006118;28;20036;-65
2023/05/04 09:05:35;;;;;;;4.30;1.20;;;;;;;;;;5021575;28;20430;-64
2023/05/04 09:08:02;;;;;;;3.42;0.90;;;;;;;;;;5033585;28;20441;-64
2023/05/04 09:10:28;;;;;;;2.28;0.70;;;;;;;;;;5030866;28;20036;-64
2023/05/04 09:12:57;;;;;;;4.13;0.82;;;;;;;;;;5007685;28;20044;-64
2023/05/04 09:15:23;;;;;;;5.10;1.15;;;;;;;;;;5013051;28;20123;-65
2023/05/04 09:18:03;;;;;;;9.30;1.40;;;;;;;;;;5021218;28;20912;-65
2023/05/04 09:20:30;;;;;;;2.95;0.90;;;;;;;;;;5027231;28;20522;-64
2023/05/04 09:23:16;;;;;;;6.22;1.58;;;;;;;;;;5022357;28;20025;-65
2023/05/04 09:25:49;;;;;;;3.47;1.30;;;;;;;;;;5009999;28;20429;-65
2023/05/04 09:28:15;;;;;;;3.92;1.10;;;;;;;;;;5025595;28;20037;-65
2023/05/04 09:30:42;;;;;;;4.22;1.52;;;;;;;;;;5022938;28;20494;-64
2023/05/04 09:33:09;;;;;;;5.63;1.20;;;;;;;;;;5023332;28;20047;-65
2023/05/04 09:35:38;;;;;;;4.88;1.50;;;;;;;;;;5023088;28;20915;-65
2023/05/04 09:38:06;;;;;;;2.95;0.88;;;;;;;;;;5023038;28;20055;-65
2023/05/04 09:40:36;;;;;;;2.72;0.90;;;;;;;;;;5006726;28;20082;-65
2023/05/04 09:43:03;;;;;;;2.50;0.98;;;;;;;;;;5003350;28;20294;-65
2023/05/04 09:45:42;;;;;;;3.88;1.02;;;;;;;;;;5024067;28;20035;-65
2023/05/04 09:48:19;;;;;;;4.07;1.02;;;;;;;;;;5004781;28;20499;-65
2023/05/04 09:50:52;;;;;;;4.72;1.00;;;;;;;;;;5022253;28;20045;-64
2023/05/04 09:53:28;;;;;;;3.97;1.10;;;;;;;;;;5009149;28;20114;-64
2023/05/04 09:56:00;;;;;;;3.95;1.05;;;;;;;;;;5024172;28;20039;-65
2023/05/04 09:58:27;;;;;;;3.28;0.90;;;;;;;;;;5008813;28;20771;-64
2023/05/04 10:00:53;;;;;;;3.40;1.00;;;;;;;;;;5023916;28;20029;-64
2023/05/04 10:03:22;;;;;;;4.05;0.90;;;;;;;;;;5027142;28;20104;-65
2023/05/04 10:05:49;;;;;;;3.40;0.93;;;;;;;;;;5021480;28;20527;-65
2023/05/04 10:08:16;;;;;;;5.65;0.98;;;;;;;;;;5024611;28;20041;-64
2023/05/04 10:10:44;;;;;;;4.38;0.90;;;;;;;;;;5010342;28;20596;-65
2023/05/04 10:13:10;;;;;;;3.05;0.80;;;;;;;;;;5023634;28;20031;-64
2023/05/04 10:15:39;;;;;;;2.45;0.80;;;;;;;;;;5022932;28;20033;-65
2023/05/04 10:18:08;;;;;;;2.30;0.70;;;;;;;;;;5024410;28;20527;-65
2023/05/04 10:21:01;;;;;;;5.68;1.00;;;;;;;;;;5020988;28;20053;-66
2023/05/04 10:23:38;;;;;;;3.83;0.80;;;;;;;;;;4944486;28;20491;-66
2023/05/04 10:26:12;;;;;;;5.90;0.90;;;;;;;;;;4942116;28;20026;-66
2023/05/04 10:28:41;;;;;;;2.65;0.80;;;;;;;;;;4922432;28;20129;-64
2023/05/04 10:31:07;;;;;;;3.28;0.80;;;;;;;;;;4944771;28;20138;-64
2023/05/04 10:33:42;;;;;;;3.13;0.80;;;;;;;;;;4929023;28;20035;-65
2023/05/04 10:36:09;;;;;;;3.28;1.05;;;;;;;;;;4926204;28;20042;-64
2023/05/04 10:38:36;;;;;;;5.75;1.17;;;;;;;;;;4937658;28;20035;-64
2023/05/04 10:41:28;;;;;;;4.78;1.30;;;;;;;;;;4942337;28;20034;-64
2023/05/04 10:44:04;;;;;;;5.15;1.10;;;;;;;;;;4938251;28;20367;-64
2023/05/04 10:46:30;;;;;;;2.45;0.82;;;;;;;;;;4944869;28;20062;-64
2023/05/04 10:48:56;;;;;;;4.25;0.95;;;;;;;;;;4943157;28;20038;-63
2023/05/04 10:51:23;;;;;;;3.60;1.10;;;;;;;;;;4941810;28;20436;-64
2023/05/04 10:53:50;;;;;;;5.65;1.20;;;;;;;;;;4936399;28;20067;-64
2023/05/04 10:56:19;;;;;;;3.03;1.00;;;;;;;;;;4926921;28;20037;-65
2023/05/04 10:58:46;;;;;;;3.42;1.02;;;;;;;;;;4938495;28;20039;-65
2023/05/04 11:01:13;;;;;;;3.72;1.10;;;;;;;;;;5007176;28;20427;-65
2023/05/04 11:03:39;;;;;;;4.53;1.02;;;;;;;;;;5025468;28;20035;-63
2023/05/04 11:06:15;;;;;;;2.85;0.98;;;;;;;;;;5021714;28;20682;-66
2023/05/04 11:08:41;;;;;;;2.80;0.85;;;;;;;;;;5020625;28;20103;-65
2023/05/04 11:11:08;;;;;;;8.32;1.40;;;;;;;;;;5022939;28;20639;-73
2023/05/04 11:13:35;;;;;;;5.38;1.17;;;;;;;;;;5004131;28;20088;-64
2023/05/04 11:16:01;;;;;;;3.95;1.00;;;;;;;;;;5003688;28;20339;-65
2023/05/04 11:18:27;;;;;;;3.63;0.95;;;;;;;;;;5022332;28;20454;-68
2023/05/04 11:20:55;;;;;;;3.63;0.82;;;;;;;;;;5023729;28;20543;-68
2023/05/04 11:23:21;;;;;;;3.53;0.88;;;;;;;;;;5007168;28;20025;-65
2023/05/04 11:25:47;;;;;;;3.35;0.90;;;;;;;;;;5021941;28;20030;-65
2023/05/04 11:28:13;;;;;;;5.68;0.90;;;;;;;;;;5008060;28;20033;-65
2023/05/04 11:30:41;;;;;;;3.40;0.95;;;;;;;;;;5015482;28;20029;-65
2023/05/04 11:33:11;;;;;;;3.00;0.85;;;;;;;;;;5024621;28;20067;-65
2023/05/04 11:35:37;;;;;;;5.25;1.10;;;;;;;;;;5021210;28;20036;-65
2023/05/04 11:38:05;;;;;;;4.40;1.00;;;;;;;;;;5023196;28;20117;-65
2023/05/04 11:40:31;;;;;;;5.50;1.02;;;;;;;;;;5022092;28;20663;-64
2023/05/04 11:42:57;;;;;;;4.03;1.00;;;;;;;;;;5008261;28;20520;-66
2023/05/04 11:45:23;;;;;;;4.88;0.90;;;;;;;;;;5024494;28;20033;-67
2023/05/04 11:47:51;;;;;;;6.07;0.85;;;;;;;;;;5021619;28;20436;-69
2023/05/04 11:50:19;;;;;;;4.28;1.10;;;;;;;;;;5023023;28;20033;-70
2023/05/04 11:52:45;;;;;;;3.90;0.98;;;;;;;;;;5024231;28;20330;-71
2023/05/04 11:55:13;;;;;;;4.15;1.05;;;;;;;;;;5005918;28;20365;-70
2023/05/04 11:57:39;;;;;;;3.42;0.98;;;;;;;;;;5004894;28;20117;-69
2023/05/04 12:00:06;;;;;;;5.35;1.15;;;;;;;;;;5010209;28;20353;-67
2023/05/04 12:02:32;;;;;;;4.93;1.23;;;;;;;;;;5023777;28;20044;-65
2023/05/04 12:04:59;;;;;;;4.93;1.10;;;;;;;;;;5023020;28;20040;-66
2023/05/04 12:07:25;;;;;;;4.25;0.90;;;;;;;;;;5025515;28;20028;-70
2023/05/04 12:09:51;;;;;;;3.03;0.93;;;;;;;;;;5022491;28;20055;-65
2023/05/04 12:12:20;;;;;;;6.72;1.33;;;;;;;;;;5028978;28;20035;-65
2023/05/04 12:14:50;;;;;;;5.38;1.05;;;;;;;;;;5014639;28;20718;-64
2023/05/04 12:17:17;;;;;;;4.53;1.10;;;;;;;;;;5026953;28;20507;-69
2023/05/04 12:19:47;;;;;;;5.32;1.27;;;;;;;;;;5021254;28;21153;-69
2023/05/04 12:22:13;;;;;;;6.63;1.20;;;;;;;;;;5024517;28;20221;-66
2023/05/04 12:24:39;;;;;;;5.00;1.10;;;;;;;;;;5023081;28;20574;-64
2023/05/04 12:27:11;;;;;;;5.20;1.20;;;;;;;;;;5008912;28;20049;-66
2023/05/04 12:29:40;;;;;;;4.07;1.08;;;;;;;;;;5023591;28;20701;-67
2023/05/04 12:32:06;;;;;;;3.38;1.00;;;;;;;;;;5026421;28;20356;-70
2023/05/04 12:34:33;;;;;;;5.72;1.52;;;;;;;;;;5009757;28;20496;-66
2023/05/04 12:36:59;;;;;;;3.60;1.10;;;;;;;;;;5023538;28;20562;-67
2023/05/04 12:39:27;;;;;;;3.08;1.00;;;;;;;;;;5028196;28;20033;-67
2023/05/04 12:41:53;;;;;;;5.57;1.00;;;;;;;;;;5016847;28;21612;-67
2023/05/04 12:44:19;;;;;;;3.70;0.80;;;;;;;;;;5024285;28;20030;-65
2023/05/04 12:46:45;;;;;;;4.30;0.93;;;;;;;;;;5018638;28;20672;-67
2023/05/04 12:49:13;;;;;;;4.47;0.93;;;;;;;;;;5023420;28;20087;-69
2023/05/04 12:51:39;;;;;;;6.32;1.20;;;;;;;;;;5021413;28;20029;-67
2023/05/04 12:54:06;;;;;;;5.63;1.00;;;;;;;;;;5027262;28;20029;-65
2023/05/04 12:56:32;;;;;;;3.92;1.10;;;;;;;;;;5024466;28;20106;-70
2023/05/04 12:58:59;;;;;;;2.13;0.70;;;;;;;;;;5026444;28;20528;-70
2023/05/04 13:01:26;;;;;;;4.13;0.90;;;;;;;;;;5008100;28;20056;-67
2023/05/04 13:03:52;;;;;;;4.95;1.00;;;;;;;;;;5020510;28;20024;-66
2023/05/04 13:06:18;;;;;;;3.30;0.95;;;;;;;;;;5025731;28;20108;-65
2023/05/04 13:08:46;;;;;;;3.58;1.10;;;;;;;;;;5021646;28;20044;-65
2023/05/04 13:11:12;;;;;;;4.00;0.90;;;;;;;;;;5007366;28;20120;-68
2023/05/04 13:13:38;;;;;;;4.20;0.90;;;;;;;;;;5004913;28;20455;-68
2023/05/04 13:16:05;;;;;;;3.67;0.93;;;;;;;;;;5006157;28;20047;-65
2023/05/04 13:18:31;;;;;;;3.47;0.93;;;;;;;;;;5021184;28;20033;-70
2023/05/04 13:20:57;;;;;;;4.32;0.80;;;;;;;;;;5019934;28;20029;-70
2023/05/04 13:23:23;;;;;;;4.82;1.02;;;;;;;;;;5021311;28;20033;-70
2023/05/04 13:25:50;;;;;;;5.88;1.00;;;;;;;;;;5023197;28;20029;-69
2023/05/04 13:28:16;;;;;;;3.35;0.80;;;;;;;;;;5008969;28;20150;-70
2023/05/04 13:30:43;;;;;;;5.35;1.00;;;;;;;;;;5021006;28;20037;-69
2023/05/04 13:33:09;;;;;;;7.70;1.35;;;;;;;;;;5025444;28;20040;-66
2023/05/04 13:35:36;;;;;;;3.80;1.00;;;;;;;;;;5004070;28;20041;-66
2023/05/04 13:38:02;;;;;;;7.28;1.20;;;;;;;;;;5006858;28;20029;-66
2023/05/04 13:40:28;;;;;;;4.85;1.10;;;;;;;;;;5019832;28;20465;-70
2023/05/04 13:42:54;;;;;;;3.80;0.85;;;;;;;;;;5021559;28;20032;-70
2023/05/04 13:45:21;;;;;;;3.08;0.80;;;;;;;;;;5020926;28;20466;-71
2023/05/04 13:47:47;;;;;;;3.05;0.90;;;;;;;;;;5003263;28;20136;-72
2023/05/04 13:50:14;;;;;;;2.60;0.75;;;;;;;;;;5020310;28;20068;-67
2023/05/04 13:52:40;;;;;;;4.60;0.80;;;;;;;;;;5019641;28;20025;-67
2023/05/04 13:55:06;;;;;;;3.80;0.90;;;;;;;;;;5021871;28;20461;-66
2023/05/04 13:57:32;;;;;;;4.95;1.02;;;;;;;;;;5020952;28;20585;-64
2023/05/04 13:59:58;;;;;;;4.80;1.30;;;;;;;;;;5018913;28;20052;-66
2023/05/04 14:02:25;;;;;;;3.65;0.95;;;;;;;;;;5023180;28;20025;-65
2023/05/04 14:04:51;;;;;;;4.85;0.95;;;;;;;;;;5024817;28;20036;-67
2023/05/04 14:07:17;;;;;;;3.33;0.80;;;;;;;;;;5023792;28;20021;-66
2023/05/04 14:09:44;;;;;;;4.57;0.70;;;;;;;;;;5019735;28;20376;-64
2023/05/04 14:12:10;;;;;;;5.63;0.80;;;;;;;;;;5022829;28;20033;-66
2023/05/04 14:14:36;;;;;;;5.38;0.82;;;;;;;;;;5015812;28;20285;-67
2023/05/04 14:17:02;;;;;;;3.10;0.80;;;;;;;;;;5016157;28;20041;-67
2023/05/04 14:19:29;;;;;;;3.83;0.70;;;;;;;;;;5021986;28;20093;-70
2023/05/04 14:21:55;;;;;;;3.50;0.90;;;;;;;;;;5022085;28;20052;-69
2023/05/04 14:24:21;;;;;;;5.22;0.80;;;;;;;;;;5024181;28;20475;-70
2023/05/04 14:26:47;;;;;;;2.70;0.75;;;;;;;;;;5004349;28;20498;-65
2023/05/04 14:29:13;;;;;;;4.68;0.88;;;;;;;;;;5021336;28;20025;-67
2023/05/04 14:31:40;;;;;;;5.40;0.80;;;;;;;;;;5019528;28;20025;-70
2023/05/04 14:34:06;;;;;;;2.80;0.90;;;;;;;;;;5023752;28;20029;-71
2023/05/04 14:36:32;;;;;;;2.13;0.50;;;;;;;;;;5026469;28;20041;-71
2023/05/04 14:39:00;;;;;;;3.67;0.75;;;;;;;;;;5003625;28;20031;-70
2023/05/04 14:41:32;;;;;;;4.65;0.90;;;;;;;;;;5022625;28;20021;-66
2023/05/04 14:43:58;;;;;;;2.40;0.70;;;;;;;;;;5019810;28;20083;-67
2023/05/04 14:46:24;;;;;;;3.05;0.82;;;;;;;;;;5019900;28;20391;-65
2023/05/04 14:48:50;;;;;;;3.80;0.82;;;;;;;;;;5017892;28;20405;-67
2023/05/04 14:51:25;;;;;;;3.33;0.82;;;;;;;;;;5006328;28;20831;-68